SAS1TB ENBR-EKCH
Flight info
| Callsign | SAS1TB |
|---|---|
| Flight time | N/A |
| Altitude | 37000 |
| Route | TUXIL DCT ZOL DCT TESPI |
| Aircraft | A320/M-SDE3FGHIRWY/LB1 |
Departure
| Time | N/A |
|---|---|
| Airport | Bergen Airport, Flesland (ENBR) |
Arrival
| Time | 2026-05-03 20:21 |
|---|---|
| Airport | Copenhagen Kastrup Airport (EKCH) |
| Time | Latitude | Longitude | Altitude | Speed | Heading |
|---|---|---|---|---|---|
| 2026-05-03 20:15 | 55.84152 | 12.77583 | 3274 ft | 222 kts | 134° |
| 2026-05-03 20:15 | 55.83159 | 12.79663 | 3013 ft | 220 kts | 136° |
| 2026-05-03 20:15 | 55.81986 | 12.81266 | 2997 ft | 208 kts | 160° |
| 2026-05-03 20:15 | 55.80652 | 12.82224 | 3012 ft | 206 kts | 162° |
| 2026-05-03 20:16 | 55.79348 | 12.83144 | 3010 ft | 198 kts | 162° |
| 2026-05-03 20:16 | 55.78096 | 12.84022 | 3012 ft | 195 kts | 162° |
| 2026-05-03 20:16 | 55.76834 | 12.84885 | 3006 ft | 193 kts | 167° |
| 2026-05-03 20:16 | 55.75526 | 12.85180 | 3011 ft | 189 kts | 187° |
| 2026-05-03 20:17 | 55.74265 | 12.84644 | 2965 ft | 186 kts | 206° |
| 2026-05-03 20:17 | 55.73204 | 12.83369 | 2795 ft | 185 kts | 221° |
| 2026-05-03 20:17 | 55.72239 | 12.81859 | 2568 ft | 185 kts | 221° |
| 2026-05-03 20:17 | 55.71274 | 12.80348 | 2336 ft | 187 kts | 221° |
| 2026-05-03 20:18 | 55.70309 | 12.78842 | 2104 ft | 183 kts | 221° |
| 2026-05-03 20:18 | 55.69362 | 12.77365 | 1833 ft | 180 kts | 220° |
| 2026-05-03 20:18 | 55.68436 | 12.75923 | 1592 ft | 172 kts | 221° |
| 2026-05-03 20:18 | 55.67577 | 12.74585 | 1370 ft | 158 kts | 221° |
| 2026-05-03 20:19 | 55.66793 | 12.73365 | 1166 ft | 147 kts | 220° |
| 2026-05-03 20:19 | 55.66031 | 12.72181 | 969 ft | 144 kts | 220° |
| 2026-05-03 20:19 | 55.65282 | 12.71017 | 795 ft | 143 kts | 221° |
| 2026-05-03 20:19 | 55.64530 | 12.69849 | 584 ft | 145 kts | 223° |
| 2026-05-03 20:20 | 55.63773 | 12.68674 | 384 ft | 144 kts | 222° |
| 2026-05-03 20:20 | 55.63015 | 12.67499 | 202 ft | 145 kts | 223° |
| 2026-05-03 20:20 | 55.62271 | 12.66339 | 20 ft | 134 kts | 223° |
| 2026-05-03 20:20 | 55.61699 | 12.65439 | 18 ft | 84 kts | 220° |
| 2026-05-03 20:21 | 55.61391 | 12.64971 | 19 ft | 41 kts | 220° |
| 2026-05-03 20:21 | 55.61260 | 12.64652 | 19 ft | 29 kts | 255° |
| 2026-05-03 20:21 | 55.61205 | 12.64378 | 19 ft | 20 kts | 248° |
| 2026-05-03 20:21 | 55.61193 | 12.64166 | 19 ft | 16 kts | 302° |
| 2026-05-03 20:22 | 55.61292 | 12.64134 | 17 ft | 16 kts | 25° |
| 2026-05-03 20:22 | 55.61390 | 12.64249 | 17 ft | 18 kts | 34° |
| 2026-05-03 20:22 | 55.61503 | 12.64368 | 18 ft | 20 kts | 32° |
| 2026-05-03 20:22 | 55.61606 | 12.64490 | 17 ft | 15 kts | 33° |
| 2026-05-03 20:23 | 55.61678 | 12.64567 | 18 ft | 11 kts | 23° |
| 2026-05-03 20:23 | 55.61748 | 12.64560 | 19 ft | 10 kts | 350° |
| 2026-05-03 20:23 | 55.61826 | 12.64534 | 20 ft | 16 kts | 348° |
| 2026-05-03 20:23 | 55.61937 | 12.64495 | 19 ft | 16 kts | 349° |
| 2026-05-03 20:24 | 55.62042 | 12.64461 | 17 ft | 13 kts | 349° |
| 2026-05-03 20:24 | 55.62113 | 12.64437 | 17 ft | 10 kts | 349° |
| 2026-05-03 20:24 | 55.62188 | 12.64413 | 15 ft | 12 kts | 349° |
| 2026-05-03 20:24 | 55.62271 | 12.64397 | 16 ft | 12 kts | 6° |
| 2026-05-03 20:25 | 55.62347 | 12.64429 | 17 ft | 11 kts | 15° |
| 2026-05-03 20:25 | 55.62428 | 12.64468 | 17 ft | 13 kts | 16° |
| 2026-05-03 20:25 | 55.62492 | 12.64467 | 19 ft | 10 kts | 328° |
| 2026-05-03 20:25 | 55.62538 | 12.64360 | 17 ft | 12 kts | 303° |
| 2026-05-03 20:26 | 55.62585 | 12.64262 | 17 ft | 10 kts | 342° |
| 2026-05-03 20:26 | 55.62636 | 12.64288 | 17 ft | 7 kts | 19° |
| 2026-05-03 20:26 | 55.62675 | 12.64311 | 17 ft | 5 kts | 19° |
| 2026-05-03 20:26 | 55.62679 | 12.64354 | 17 ft | 4 kts | 95° |
| 2026-05-03 20:27 | 55.62674 | 12.64402 | 18 ft | 4 kts | 101° |
| 2026-05-03 20:27 | 55.62670 | 12.64435 | 17 ft | 0 kts | 101° |